createdAt,value
2023-05-03T00:00:21.074Z,84.40
2023-05-03T00:15:25.790Z,84.60
2023-05-03T00:30:30.302Z,85.20
2023-05-03T00:45:35.449Z,83.70
2023-05-03T01:00:39.943Z,83.10
2023-05-03T01:15:54.321Z,81.70
2023-05-03T01:31:00.177Z,82.60
2023-05-03T01:46:04.789Z,83.50
2023-05-03T02:01:09.352Z,83.00
2023-05-03T02:16:13.849Z,84.20
2023-05-03T02:31:18.433Z,84.40
2023-05-03T02:46:23.251Z,84.20
2023-05-03T03:01:29.721Z,84.80
2023-05-03T03:16:34.464Z,84.60
2023-05-03T03:31:39.015Z,84.20
2023-05-03T03:46:44.295Z,84.90
2023-05-03T04:01:49.129Z,85.40
2023-05-03T04:16:54.007Z,85.90
2023-05-03T04:31:58.698Z,86.00
2023-05-03T04:47:03.785Z,86.30
2023-05-03T05:02:08.686Z,86.50
2023-05-03T05:17:13.254Z,87.70
2023-05-03T05:32:19.401Z,87.80
2023-05-03T05:47:24.077Z,87.30
2023-05-03T06:02:31.142Z,88.20
2023-05-03T06:17:35.843Z,89.50
2023-05-03T06:32:42.816Z,89.00
2023-05-03T06:47:50.233Z,89.20
2023-05-03T07:02:55.056Z,88.20
2023-05-03T07:17:59.675Z,88.10
2023-05-03T07:33:04.476Z,88.10
2023-05-03T07:48:09.161Z,87.20
2023-05-03T08:03:13.858Z,86.20
2023-05-03T08:18:18.895Z,87.10
2023-05-03T08:33:23.902Z,86.10
2023-05-03T08:48:30.626Z,86.70
2023-05-03T09:03:36.372Z,86.40
2023-05-03T09:18:43.912Z,86.40
2023-05-03T09:33:48.466Z,84.70
2023-05-03T09:48:55.395Z,83.50
2023-05-03T10:04:02.393Z,83.60
2023-05-03T10:19:14.128Z,83.70
2023-05-03T10:34:25.015Z,84.20
2023-05-03T10:49:29.340Z,84.30
2023-05-03T11:04:42.794Z,85.20
2023-05-03T11:19:48.358Z,85.10
2023-05-03T11:34:52.825Z,85.70
2023-05-03T11:49:58.832Z,84.50
2023-05-03T12:21:02.902Z,83.40
2023-05-03T12:35:46.971Z,81.30
2023-05-03T12:50:52.296Z,80.90
2023-05-03T13:05:57.051Z,81.30
2023-05-03T13:21:02.348Z,79.70
2023-05-03T13:36:07.739Z,76.00
2023-05-03T13:51:13.541Z,71.50
2023-05-03T14:06:18.015Z,62.30
2023-05-03T14:21:22.570Z,55.00
2023-05-03T14:36:33.150Z,48.80
2023-05-03T14:51:37.573Z,44.70
2023-05-03T15:06:42.850Z,41.30
2023-05-03T15:21:48.415Z,39.80
2023-05-03T15:36:52.812Z,38.60
2023-05-03T15:51:57.165Z,36.60
2023-05-03T16:07:01.604Z,36.30
2023-05-03T16:22:06.643Z,37.70
2023-05-03T16:37:11.228Z,39.20
2023-05-03T16:52:16.168Z,42.10
2023-05-03T17:07:20.588Z,42.90
2023-05-03T17:22:25.026Z,42.70
2023-05-03T17:37:29.838Z,43.80
2023-05-03T17:52:34.363Z,44.70
2023-05-03T18:07:39.027Z,45.90
2023-05-03T18:22:43.524Z,47.10
2023-05-03T18:37:47.995Z,49.30
2023-05-03T18:52:52.593Z,51.80
2023-05-03T19:07:57.029Z,54.10
2023-05-03T19:23:01.613Z,54.80
2023-05-03T19:38:06.033Z,56.80
2023-05-03T19:53:10.706Z,58.20
2023-05-03T20:08:15.097Z,59.80
2023-05-03T20:23:19.582Z,61.50
2023-05-03T20:38:23.967Z,63.00
2023-05-03T20:53:29.882Z,63.20
2023-05-03T21:08:34.432Z,64.90
2023-05-03T21:23:38.974Z,66.50
2023-05-03T21:38:43.459Z,67.80
2023-05-03T21:53:48.313Z,69.00
2023-05-03T22:08:52.825Z,69.80
2023-05-03T22:23:57.326Z,69.80
2023-05-03T22:39:05.264Z,70.00
2023-05-03T22:54:09.702Z,69.80
2023-05-03T23:09:14.133Z,69.60
2023-05-03T23:24:18.811Z,70.00
2023-05-03T23:39:23.313Z,70.10
2023-05-03T23:54:28.078Z,69.10
